Time;durP1;ratioP1;P1;durP2;ratioP2;P2;SDS_P1;SDS_P2;PMS_P1;PMS_P2;Temp;Humidity;BMP_temperature;BMP_pressure;BME280_temperature;BME280_humidity;BME280_pressure;Samples;Min_cycle;Max_cycle;Signal;HPM_P1;HPM_P2
2021/05/03 00:01:17;;;;;;;4.07;1.70;;;;;;;18.51;45.25;102070.88;5073495;28;20371;-56
2021/05/03 00:03:42;;;;;;;5.25;1.45;;;;;;;18.49;45.32;102063.03;5074298;28;20032;-58
2021/05/03 00:06:08;;;;;;;3.47;1.70;;;;;;;18.45;45.47;102054.47;5074077;28;20025;-55
2021/05/03 00:08:33;;;;;;;2.70;1.42;;;;;;;18.46;44.96;102053.50;5073275;28;20028;-56
2021/05/03 00:11:02;;;;;;;2.90;1.50;;;;;;;18.45;45.22;102057.13;5073888;28;20056;-57
2021/05/03 00:13:27;;;;;;;3.90;1.73;;;;;;;18.44;45.33;102049.28;5073494;28;20028;-56
2021/05/03 00:15:54;;;;;;;3.13;1.40;;;;;;;18.39;45.11;102049.59;5073411;28;20035;-55
2021/05/03 00:18:20;;;;;;;4.65;1.83;;;;;;;18.39;45.04;102051.34;5073358;28;20460;-57
2021/05/03 00:20:46;;;;;;;3.97;1.50;;;;;;;18.40;45.16;102056.53;5073510;28;20020;-56
2021/05/03 00:23:17;;;;;;;4.03;1.35;;;;;;;18.39;45.02;102057.50;5072805;28;20459;-55
2021/05/03 00:25:46;;;;;;;3.60;1.38;;;;;;;18.38;45.05;102052.31;5073636;28;20050;-58
2021/05/03 00:28:14;;;;;;;4.20;1.50;;;;;;;18.36;45.03;102059.47;5073557;28;20025;-55
2021/05/03 00:30:40;;;;;;;4.45;1.52;;;;;;;18.35;45.08;102058.63;5072795;28;20052;-56
2021/05/03 00:33:09;;;;;;;4.40;1.48;;;;;;;18.34;45.05;102056.09;5073792;28;20102;-58
2021/05/03 00:35:38;;;;;;;4.07;1.58;;;;;;;18.31;45.09;102055.34;5072161;28;20056;-59
2021/05/03 00:38:05;;;;;;;3.53;1.60;;;;;;;18.33;44.91;102062.31;5071896;28;20020;-58
2021/05/03 00:40:31;;;;;;;3.55;1.52;;;;;;;18.30;45.01;102055.44;5072838;28;20044;-54
2021/05/03 00:42:57;;;;;;;3.80;1.40;;;;;;;18.28;44.65;102055.53;5073088;28;20144;-56
2021/05/03 00:45:23;;;;;;;4.68;1.60;;;;;;;18.27;44.97;102059.09;5072980;28;20036;-56
2021/05/03 00:47:49;;;;;;;3.72;1.38;;;;;;;18.25;44.86;102063.63;5073318;28;20364;-59
2021/05/03 00:50:16;;;;;;;3.97;1.55;;;;;;;18.18;44.95;102049.13;5071763;28;20039;-56
2021/05/03 00:52:43;;;;;;;4.40;1.48;;;;;;;18.25;44.64;102063.63;5073504;28;20035;-56
2021/05/03 00:55:09;;;;;;;3.33;1.50;;;;;;;18.23;44.80;102054.97;5072791;28;20016;-57
2021/05/03 00:57:37;;;;;;;3.72;1.48;;;;;;;18.22;44.71;102057.72;5071564;28;20395;-55
2021/05/03 01:00:06;;;;;;;3.90;1.50;;;;;;;18.21;44.83;102058.66;5072458;28;20074;-56
2021/05/03 01:02:31;;;;;;;4.75;1.80;;;;;;;18.21;45.01;102056.00;5072206;28;20025;-56
2021/05/03 01:04:57;;;;;;;5.10;1.60;;;;;;;18.19;45.09;102058.75;5071708;28;20028;-56
2021/05/03 01:07:28;;;;;;;4.00;1.40;;;;;;;18.18;44.63;102053.56;5072427;28;20402;-57
2021/05/03 01:09:56;;;;;;;5.65;1.50;;;;;;;18.17;44.72;102052.72;5072451;28;20016;-56
2021/05/03 01:12:22;;;;;;;3.40;1.33;;;;;;;18.16;44.76;102056.28;5071109;28;20193;-58
2021/05/03 01:14:47;;;;;;;4.60;1.33;;;;;;;18.11;44.46;102046.03;5072337;28;20048;-56
2021/05/03 01:17:13;;;;;;;3.80;1.30;;;;;;;18.14;44.66;102039.72;5071681;28;20106;-56
2021/05/03 01:19:42;;;;;;;4.50;1.58;;;;;;;18.10;44.76;102039.06;5071735;28;20429;-57
2021/05/03 01:22:08;;;;;;;4.30;1.50;;;;;;;18.12;44.66;102046.88;5071893;28;20135;-55
2021/05/03 01:24:33;;;;;;;4.00;1.45;;;;;;;18.11;44.66;102043.38;5071978;28;20436;-57
2021/05/03 01:26:59;;;;;;;4.68;1.70;;;;;;;18.03;44.94;102036.91;5071311;28;20107;-55
2021/05/03 01:29:25;;;;;;;4.00;1.48;;;;;;;18.08;44.64;102035.66;5071887;28;20440;-55
2021/05/03 01:31:52;;;;;;;4.57;1.55;;;;;;;18.08;44.59;102040.09;5071962;28;20028;-56
2021/05/03 01:34:18;;;;;;;3.72;1.50;;;;;;;18.05;44.65;102041.13;5071771;28;20025;-56
2021/05/03 01:36:48;;;;;;;3.03;1.45;;;;;;;18.08;44.87;102046.22;5071854;28;20021;-56
2021/05/03 01:39:18;;;;;;;3.50;1.48;;;;;;;18.07;44.82;102043.66;5071326;28;20064;-57
2021/05/03 01:41:44;;;;;;;2.78;1.40;;;;;;;18.04;44.61;102041.22;5072164;28;20024;-57
2021/05/03 01:44:11;;;;;;;3.78;1.58;;;;;;;18.03;44.47;102043.00;5070563;28;20035;-56
2021/05/03 01:46:38;;;;;;;2.70;1.23;;;;;;;18.03;44.41;102040.38;5071035;28;20455;-59
2021/05/03 01:49:06;;;;;;;3.65;1.50;;;;;;;18.03;44.77;102039.53;5071973;28;20025;-56
2021/05/03 01:51:34;;;;;;;4.00;1.50;;;;;;;18.02;44.74;102041.31;5071481;28;20029;-56
2021/05/03 01:54:02;;;;;;;3.95;1.70;;;;;;;18.01;44.52;102030.84;5071339;28;20028;-56
2021/05/03 01:56:27;;;;;;;3.90;1.45;;;;;;;18.00;44.51;102034.44;5071507;28;20371;-58
2021/05/03 01:58:53;;;;;;;3.50;1.33;;;;;;;17.99;44.51;102040.66;5071838;28;20025;-56
2021/05/03 02:01:20;;;;;;;3.70;1.48;;;;;;;17.97;44.44;102032.00;5070762;28;20020;-57
2021/05/03 02:03:46;;;;;;;3.55;1.63;;;;;;;18.00;44.66;102035.28;5071574;28;20032;-55
2021/05/03 02:06:16;;;;;;;2.72;1.35;;;;;;;18.06;44.67;102034.91;5071602;28;20020;-55
2021/05/03 02:08:42;;;;;;;4.32;1.50;;;;;;;18.07;44.30;102031.34;5071092;28;20031;-56
2021/05/03 02:11:07;;;;;;;3.13;1.50;;;;;;;18.11;43.76;102035.47;5071603;28;20052;-56
2021/05/03 02:13:34;;;;;;;4.03;1.50;;;;;;;18.15;44.05;102037.91;5071241;28;20103;-55
2021/05/03 02:16:02;;;;;;;3.90;1.60;;;;;;;18.13;43.33;102030.97;5070937;28;20533;-57
2021/05/03 02:18:28;;;;;;;3.95;1.60;;;;;;;18.15;43.18;102036.16;5070981;28;20032;-57
2021/05/03 02:20:53;;;;;;;4.15;1.80;;;;;;;18.17;43.20;102036.06;5071240;28;20134;-55
2021/05/03 02:23:19;;;;;;;4.30;1.58;;;;;;;18.17;43.89;102033.41;5070618;28;20021;-57
2021/05/03 02:25:45;;;;;;;4.07;1.58;;;;;;;18.17;44.12;102030.78;5071715;28;20100;-60
2021/05/03 02:28:11;;;;;;;3.03;1.50;;;;;;;18.15;44.39;102028.22;5070907;28;20021;-58
2021/05/03 02:30:38;;;;;;;3.60;1.50;;;;;;;18.14;44.23;102034.44;5074641;28;20094;-56
2021/05/03 02:33:04;;;;;;;4.13;1.60;;;;;;;18.08;44.21;102022.47;5074855;28;20371;-56
2021/05/03 02:35:33;;;;;;;3.08;1.42;;;;;;;18.13;43.99;102032.75;5073901;28;20093;-56
2021/05/03 02:38:00;;;;;;;3.33;1.52;;;;;;;18.12;43.88;102028.41;5074896;28;20036;-55
2021/05/03 02:40:27;;;;;;;4.13;1.90;;;;;;;18.10;44.18;102031.16;5074608;28;20024;-57
2021/05/03 02:42:56;;;;;;;6.55;1.80;;;;;;;18.10;44.21;102025.00;5074205;28;20024;-58
2021/05/03 02:45:24;;;;;;;3.70;1.58;;;;;;;18.09;43.80;102028.63;5074291;28;20054;-57
2021/05/03 02:47:53;;;;;;;3.70;1.30;;;;;;;18.07;44.04;102023.44;5074873;28;20086;-56
2021/05/03 02:50:22;;;;;;;3.78;1.67;;;;;;;18.07;44.29;102026.06;5074062;28;20024;-58
2021/05/03 02:52:48;;;;;;;2.70;1.63;;;;;;;17.98;44.30;102010.81;5074433;28;20085;-59
2021/05/03 02:55:14;;;;;;;5.72;1.75;;;;;;;18.03;43.97;102019.28;5074293;28;20033;-56
2021/05/03 02:57:42;;;;;;;4.25;1.52;;;;;;;18.03;44.41;102019.28;5074058;28;20040;-58
2021/05/03 03:00:10;;;;;;;4.18;1.40;;;;;;;18.09;44.36;102018.06;5074516;28;20017;-54
2021/05/03 03:02:36;;;;;;;3.03;1.23;;;;;;;18.11;44.11;102016.16;5074451;28;20020;-55
2021/05/03 03:05:01;;;;;;;4.32;1.63;;;;;;;18.10;44.43;102011.81;5073740;28;20020;-55
2021/05/03 03:07:27;;;;;;;3.20;1.50;;;;;;;18.14;44.63;102015.97;5074096;28;20034;-55
2021/05/03 03:09:52;;;;;;;3.67;1.63;;;;;;;18.11;43.92;102011.72;5074692;28;20044;-56
2021/05/03 03:12:18;;;;;;;3.42;1.60;;;;;;;18.00;43.22;101992.25;5073465;28;20416;-57
2021/05/03 03:14:43;;;;;;;3.58;1.67;;;;;;;18.15;43.10;102011.53;5074422;28;20036;-56
2021/05/03 03:17:09;;;;;;;4.28;1.90;;;;;;;18.12;42.71;102007.31;5074563;28;20021;-55
2021/05/03 03:19:39;;;;;;;3.17;1.50;;;;;;;18.12;43.25;102009.97;5073139;28;20574;-56
2021/05/03 03:22:05;;;;;;;4.70;1.90;;;;;;;18.13;43.58;102006.34;5073901;28;20044;-60
2021/05/03 03:24:34;;;;;;;3.45;1.60;;;;;;;18.13;43.73;102011.63;5073250;28;20032;-56
2021/05/03 03:27:04;;;;;;;4.15;1.70;;;;;;;18.09;44.10;102016.25;5073950;28;20016;-58
2021/05/03 03:29:32;;;;;;;4.25;1.83;;;;;;;18.10;43.76;102017.09;5073582;28;20046;-58
2021/05/03 03:31:57;;;;;;;5.63;1.73;;;;;;;18.09;44.14;102018.91;5073308;28;20114;-55
2021/05/03 03:34:23;;;;;;;3.15;1.58;;;;;;;18.08;43.98;102008.44;5073480;28;20028;-60
2021/05/03 03:36:48;;;;;;;3.33;1.60;;;;;;;18.05;43.93;102006.84;5073793;28;20021;-57
2021/05/03 03:39:14;;;;;;;3.60;1.55;;;;;;;18.06;44.07;102012.97;5072671;28;20056;-56
2021/05/03 03:41:39;;;;;;;3.55;1.70;;;;;;;18.03;44.01;102011.38;5073750;28;20025;-55
2021/05/03 03:44:05;;;;;;;3.55;1.70;;;;;;;18.04;43.87;102009.56;5073919;28;20043;-54
2021/05/03 03:46:34;;;;;;;3.70;1.42;;;;;;;18.03;43.62;102002.63;5072578;28;20456;-54
2021/05/03 03:48:59;;;;;;;3.78;1.60;;;;;;;18.00;43.69;102002.81;5073519;28;20070;-54
2021/05/03 03:51:25;;;;;;;4.90;1.40;;;;;;;18.00;43.85;102006.28;5073220;28;20028;-57
2021/05/03 03:53:51;;;;;;;4.47;1.55;;;;;;;18.04;44.06;102006.94;5072937;28;20021;-55
2021/05/03 03:56:18;;;;;;;3.63;1.63;;;;;;;18.06;44.24;102012.97;5073325;28;20191;-54
2021/05/03 03:58:45;;;;;;;3.83;1.50;;;;;;;18.09;44.53;102008.34;5073522;28;20055;-56
2021/05/03 04:01:11;;;;;;;3.78;1.77;;;;;;;18.10;44.51;102004.78;5072876;28;20021;-58
2021/05/03 04:03:53;;;;;;;2.90;1.17;;;;;;;18.11;44.31;102010.88;5072852;28;20058;-57
2021/05/03 04:06:35;;;;;;;4.82;1.70;;;;;;;18.08;43.99;102003.16;5073261;28;20571;-56
2021/05/03 04:09:19;;;;;;;3.33;1.50;;;;;;;18.12;43.74;102007.31;5073431;28;20024;-56
2021/05/03 04:12:03;;;;;;;3.97;1.98;;;;;;;18.09;43.45;102000.44;5073048;28;20025;-55
2021/05/03 04:25:41;;;;;;;4.10;1.63;;;;;;;18.03;43.71;101987.63;5072856;28;20498;-59
2021/05/03 04:28:08;;;;;;;4.40;1.90;;;;;;;18.03;43.48;101989.44;5072483;28;20059;-56
2021/05/03 04:30:35;;;;;;;3.65;1.50;;;;;;;18.02;43.68;101993.00;5072557;28;20028;-57
2021/05/03 04:33:02;;;;;;;4.78;1.70;;;;;;;18.02;44.07;101990.34;5072786;28;20456;-56
2021/05/03 04:35:28;;;;;;;4.72;1.58;;;;;;;17.98;43.75;101991.50;5071663;28;20458;-56
2021/05/03 04:37:54;;;;;;;5.35;2.00;;;;;;;17.98;43.66;101991.50;5072867;28;20048;-56
2021/05/03 04:40:19;;;;;;;3.97;1.70;;;;;;;17.97;43.61;101989.81;5072729;28;20021;-54
2021/05/03 04:42:47;;;;;;;3.10;1.55;;;;;;;17.94;43.67;101999.63;5071934;28;20107;-58
2021/05/03 04:45:14;;;;;;;3.55;1.55;;;;;;;17.92;43.93;101984.81;5072635;28;20028;-55
2021/05/03 04:47:40;;;;;;;3.95;1.80;;;;;;;17.97;44.66;101995.06;5072658;28;20081;-57
2021/05/03 04:50:08;;;;;;;2.90;1.30;;;;;;;18.00;44.52;101986.97;5071926;28;20074;-57
2021/05/03 04:52:34;;;;;;;4.10;1.60;;;;;;;18.02;44.40;101988.56;5071627;28;20039;-57
2021/05/03 04:55:00;;;;;;;3.75;1.60;;;;;;;18.07;44.48;101996.19;5072648;28;20043;-57
2021/05/03 04:57:26;;;;;;;3.38;1.45;;;;;;;18.07;44.24;101991.78;5071767;28;20051;-56
2021/05/03 04:59:52;;;;;;;4.28;1.55;;;;;;;18.07;44.18;101988.28;5072430;28;20016;-56
2021/05/03 05:02:17;;;;;;;5.30;1.92;;;;;;;18.07;43.95;101985.63;5072168;28;20028;-57
2021/05/03 05:04:42;;;;;;;3.58;1.50;;;;;;;18.10;43.99;101991.59;5071675;28;20026;-56
2021/05/03 05:07:08;;;;;;;4.45;1.40;;;;;;;18.10;43.88;101990.72;5072280;28;20031;-59
2021/05/03 05:09:34;;;;;;;4.65;1.45;;;;;;;18.15;44.04;101993.06;5072181;28;20024;-55
2021/05/03 05:11:59;;;;;;;3.80;1.35;;;;;;;18.17;43.85;101992.03;5071653;28;20490;-58
2021/05/03 05:14:28;;;;;;;4.40;1.55;;;;;;;18.24;43.45;101988.03;5071377;28;20132;-58
2021/05/03 05:16:53;;;;;;;4.03;1.70;;;;;;;18.33;43.00;101988.44;5072153;28;20040;-58
2021/05/03 05:19:19;;;;;;;4.25;1.77;;;;;;;18.35;42.92;101975.97;5071522;28;20079;-57
2021/05/03 05:21:45;;;;;;;3.65;1.60;;;;;;;18.50;42.95;101990.84;5071950;28;20040;-58
2021/05/03 05:24:10;;;;;;;4.28;1.65;;;;;;;18.57;42.44;101988.63;5071664;28;20078;-57
2021/05/03 05:26:36;;;;;;;3.88;1.58;;;;;;;18.64;41.93;101984.63;5071872;28;20426;-58
2021/05/03 05:29:04;;;;;;;5.07;1.70;;;;;;;18.72;41.95;101987.59;5072306;28;20127;-57
2021/05/03 05:31:30;;;;;;;3.85;1.67;;;;;;;18.81;41.83;101992.28;5070984;28;20020;-57
2021/05/03 05:33:58;;;;;;;3.08;1.60;;;;;;;18.88;41.57;101995.41;5072188;28;20024;-57
2021/05/03 05:36:24;;;;;;;5.05;1.70;;;;;;;18.93;41.33;101993.31;5072042;28;20036;-57
2021/05/03 05:38:53;;;;;;;5.40;1.90;;;;;;;18.99;41.16;101994.69;5071506;28;20029;-58
2021/05/03 05:41:19;;;;;;;4.45;1.80;;;;;;;19.04;41.02;101982.00;5071776;28;20021;-57
2021/05/03 05:43:46;;;;;;;4.10;1.50;;;;;;;19.16;41.20;101990.94;5072274;28;20028;-58
2021/05/03 05:46:18;;;;;;;2.83;1.17;;;;;;;19.18;40.80;101986.38;5071328;28;20028;-57
2021/05/03 05:48:43;;;;;;;3.25;1.35;;;;;;;19.20;40.90;101985.34;5072129;28;20035;-57
2021/05/03 05:51:09;;;;;;;4.38;1.80;;;;;;;19.21;41.18;101987.00;5071911;28;20016;-59
2021/05/03 05:53:34;;;;;;;3.03;1.35;;;;;;;19.21;41.13;101987.00;5070779;28;20025;-57
2021/05/03 05:56:01;;;;;;;4.10;1.50;;;;;;;19.16;40.95;101980.34;5071948;28;20055;-55
2021/05/03 05:58:35;;;;;;;2.58;1.20;;;;;;;19.17;40.82;101984.69;5071417;28;20024;-60
2021/05/03 06:01:02;;;;;;;5.50;1.73;;;;;;;19.16;41.30;101985.63;5071364;28;20075;-56
2021/05/03 06:03:28;;;;;;;4.72;1.55;;;;;;;19.15;40.83;101983.94;5071564;28;20050;-57
2021/05/03 06:05:56;;;;;;;5.22;1.77;;;;;;;19.16;41.31;101983.84;5075769;28;20099;-58
2021/05/03 06:08:22;;;;;;;5.57;1.65;;;;;;;19.21;40.58;101986.16;5074539;28;20532;-56
2021/05/03 06:10:47;;;;;;;5.88;1.75;;;;;;;19.29;40.88;101988.28;5075578;28;20024;-57
2021/05/03 06:13:17;;;;;;;4.93;1.50;;;;;;;19.35;40.77;101987.88;5074944;28;20029;-68
2021/05/03 06:15:42;;;;;;;5.30;1.40;;;;;;;19.38;40.76;101988.50;5075280;28;20017;-56
2021/05/03 06:18:09;;;;;;;4.25;1.77;;;;;;;19.40;41.31;101977.81;5074380;28;20029;-59
2021/05/03 06:20:34;;;;;;;3.72;1.50;;;;;;;19.52;41.60;101978.78;5074120;28;20063;-58
2021/05/03 06:23:04;;;;;;;3.95;1.65;;;;;;;19.58;40.93;101979.22;5075135;28;20060;-58
2021/05/03 06:25:30;;;;;;;4.10;1.80;;;;;;;19.68;40.96;101973.28;5074850;28;20103;-57
2021/05/03 06:27:56;;;;;;;4.68;1.50;;;;;;;19.76;40.78;101986.84;5074512;28;20472;-55
2021/05/03 06:30:23;;;;;;;3.58;1.60;;;;;;;19.77;41.15;101969.16;5074837;28;20025;-57
2021/05/03 06:32:52;;;;;;;6.60;1.77;;;;;;;19.84;41.44;101979.19;5075054;28;20160;-57
2021/05/03 06:35:18;;;;;;;6.05;1.95;;;;;;;19.84;41.14;101979.19;5073908;28;20472;-58
2021/05/03 06:37:44;;;;;;;3.80;1.45;;;;;;;19.82;41.60;101980.25;5075084;28;20035;-57
2021/05/03 06:40:10;;;;;;;3.95;1.63;;;;;;;19.84;41.58;101971.28;5075227;28;20020;-58
2021/05/03 06:42:36;;;;;;;5.28;1.83;;;;;;;19.88;41.65;101977.19;5073800;28;20020;-57
2021/05/03 06:45:03;;;;;;;6.57;1.50;;;;;;;19.90;41.02;101981.41;5074787;28;20024;-57
2021/05/03 06:47:28;;;;;;;4.75;1.65;;;;;;;19.92;41.14;101978.66;5074290;28;20423;-58
2021/05/03 06:49:54;;;;;;;5.30;1.75;;;;;;;20.01;40.96;101978.00;5048294;28;20059;-56
2021/05/03 06:52:20;;;;;;;5.20;1.60;;;;;;;20.00;41.65;101980.75;5074677;28;20046;-59
2021/05/03 06:54:54;;;;;;;7.13;1.90;;;;;;;20.03;41.63;101978.75;5075686;28;20029;-58
2021/05/03 06:57:20;;;;;;;5.78;1.52;;;;;;;20.04;41.84;101987.50;5073978;28;20028;-60
2021/05/03 06:59:45;;;;;;;4.45;1.42;;;;;;;20.02;41.98;101981.50;5074549;28;20017;-59
2021/05/03 07:02:13;;;;;;;2.60;1.20;;;;;;;19.98;43.06;101983.53;5075020;28;20024;-58
2021/05/03 07:04:39;;;;;;;4.22;1.80;;;;;;;20.01;42.28;101987.72;5074312;28;20024;-59
2021/05/03 07:07:05;;;;;;;6.25;1.73;;;;;;;19.97;42.07;101983.63;5074712;28;20030;-65
2021/05/03 07:09:31;;;;;;;6.15;1.70;;;;;;;19.93;42.28;101978.56;5073506;28;20047;-60
2021/05/03 07:12:08;;;;;;;4.97;1.77;;;;;;;19.90;42.45;101975.25;5074540;28;20114;-59
2021/05/03 07:14:37;;;;;;;4.45;1.60;;;;;;;19.89;42.60;101977.06;5073883;28;20382;-60
2021/05/03 07:17:06;;;;;;;4.90;1.90;;;;;;;19.87;42.95;101978.16;5073785;28;20020;-58
2021/05/03 07:19:36;;;;;;;5.28;1.83;;;;;;;19.85;42.79;101972.09;5074211;28;20183;-60
2021/05/03 07:22:05;;;;;;;5.53;1.80;;;;;;;19.82;43.09;101972.31;5074152;28;20132;-60
2021/05/03 07:24:31;;;;;;;4.20;2.10;;;;;;;19.78;42.92;101965.56;5073095;28;20032;-59
2021/05/03 07:26:57;;;;;;;4.63;1.63;;;;;;;19.72;43.22;101962.34;5073973;28;20052;-58
2021/05/03 07:29:22;;;;;;;5.45;1.85;;;;;;;19.67;42.94;101963.66;5073796;28;20036;-58
2021/05/03 07:31:48;;;;;;;6.88;1.77;;;;;;;19.63;43.26;101968.31;5073140;28;20024;-58
2021/05/03 07:34:17;;;;;;;3.72;1.60;;;;;;;19.52;43.11;101961.13;5073363;28;20521;-57
2021/05/03 07:36:43;;;;;;;6.00;1.58;;;;;;;19.57;43.39;101966.94;5074038;28;20044;-58
2021/05/03 07:39:09;;;;;;;4.43;1.80;;;;;;;19.55;43.71;101965.31;5072993;28;20032;-58
2021/05/03 07:41:35;;;;;;;4.38;1.98;;;;;;;19.53;43.32;101967.25;5073255;28;20025;-57
2021/05/03 07:44:08;;;;;;;9.35;1.88;;;;;;;19.52;43.63;101962.94;5074075;28;20455;-57
2021/05/03 07:46:38;;;;;;;4.90;1.90;;;;;;;19.47;42.96;101957.97;5072945;28;20032;-59
2021/05/03 07:49:05;;;;;;;3.28;1.70;;;;;;;19.46;43.62;101964.19;5073660;28;20150;-59
2021/05/03 07:51:31;;;;;;;4.55;1.80;;;;;;;19.37;43.68;101959.53;5073461;28;20029;-58
2021/05/03 07:54:02;;;;;;;4.20;1.85;;;;;;;19.32;43.77;101951.91;5072842;28;20126;-58
2021/05/03 07:56:32;;;;;;;6.20;2.08;;;;;;;19.29;43.46;101956.56;5073416;28;20052;-58
2021/05/03 07:58:58;;;;;;;4.70;2.15;;;;;;;19.26;43.27;101954.97;5055505;28;386263;-63
2021/05/03 08:01:24;;;;;;;5.82;2.35;;;;;;;19.27;43.77;101955.84;5071104;28;20029;-57
2021/05/03 08:03:50;;;;;;;4.97;2.22;;;;;;;19.31;43.71;101955.53;5069092;28;20032;-59
2021/05/03 08:06:15;;;;;;;6.57;2.10;;;;;;;19.29;43.47;101948.66;5052781;28;20462;-59
2021/05/03 08:08:42;;;;;;;6.40;2.20;;;;;;;19.31;43.18;101947.59;5036884;28;20414;-58
2021/05/03 08:11:11;;;;;;;5.38;2.30;;;;;;;19.34;43.45;101947.41;5043896;28;20049;-59
2021/05/03 08:13:41;;;;;;;3.47;1.63;;;;;;;19.32;43.16;101943.16;5046752;28;20037;-56
2021/05/03 08:16:10;;;;;;;5.57;2.00;;;;;;;19.28;43.55;101939.88;5053319;28;20043;-59
2021/05/03 08:18:39;;;;;;;5.13;1.90;;;;;;;19.26;43.47;101940.94;5052638;28;20025;-58
2021/05/03 08:21:05;;;;;;;4.55;1.90;;;;;;;19.24;43.27;101938.38;5051827;28;20083;-60
2021/05/03 08:23:30;;;;;;;4.90;2.03;;;;;;;19.21;43.51;101938.59;5051758;28;20037;-59
2021/05/03 08:25:56;;;;;;;4.80;2.13;;;;;;;19.17;43.12;101919.47;5052793;28;20090;-58
2021/05/03 08:28:25;;;;;;;5.95;2.40;;;;;;;19.16;43.06;101927.50;5051527;28;20120;-59
2021/05/03 08:30:51;;;;;;;6.80;2.00;;;;;;;19.11;43.07;101919.88;5052805;28;20052;-57
2021/05/03 08:33:18;;;;;;;4.35;1.92;;;;;;;19.11;43.41;101924.34;5063274;28;20124;-58
2021/05/03 08:36:04;;;;;;;7.28;1.80;;;;;;;19.05;43.59;101919.47;5072101;28;20078;-58
2021/05/03 08:38:30;;;;;;;3.78;2.00;;;;;;;19.03;43.09;101917.75;5071818;28;20031;-60
2021/05/03 08:40:58;;;;;;;4.60;2.10;;;;;;;19.04;43.29;101905.41;5072209;28;20375;-58
2021/05/03 08:43:39;;;;;;;5.32;1.95;;;;;;;18.98;43.57;101893.47;5072312;28;20120;-58
2021/05/03 08:46:05;;;;;;;5.88;2.15;;;;;;;19.07;43.75;101915.75;5072565;28;20021;-58
2021/05/03 08:48:42;;;;;;;4.45;2.22;;;;;;;19.06;43.30;101911.44;5071783;28;20483;-58
2021/05/03 08:51:18;;;;;;;4.75;2.10;;;;;;;19.05;43.31;101903.63;5072347;28;20025;-60
2021/05/03 08:53:53;;;;;;;6.13;1.88;;;;;;;19.06;43.25;101910.56;5071904;28;20167;-58
2021/05/03 08:56:19;;;;;;;4.28;2.17;;;;;;;19.02;43.90;101908.13;5087064;28;20024;-59
2021/05/03 08:58:44;;;;;;;4.35;2.10;;;;;;;19.03;43.47;101909.00;5072633;28;20447;-58
2021/05/03 09:01:13;;;;;;;6.13;2.55;;;;;;;19.02;43.71;101902.03;5072302;28;20486;-60
2021/05/03 09:03:47;;;;;;;4.68;1.98;;;;;;;19.00;43.92;101893.38;5071708;28;20081;-57
2021/05/03 09:06:13;;;;;;;6.75;2.40;;;;;;;19.05;43.77;101909.75;5071936;28;20104;-60
2021/05/03 09:08:38;;;;;;;5.43;2.70;;;;;;;19.04;43.39;101902.75;5072365;28;20052;-59
2021/05/03 09:11:04;;;;;;;4.00;1.88;;;;;;;19.03;43.63;101899.28;5071329;28;20464;-58
2021/05/03 09:13:36;;;;;;;3.75;2.00;;;;;;;19.04;43.55;101908.03;5071981;28;20039;-58
2021/05/03 09:16:25;;;;;;;5.97;2.10;;;;;;;19.02;43.21;101909.94;5072067;28;20487;-60
2021/05/03 09:19:03;;;;;;;5.78;2.03;;;;;;;19.02;43.12;101904.66;5071945;28;20032;-59
2021/05/03 09:21:33;;;;;;;4.13;1.85;;;;;;;19.00;43.15;101896.84;5071539;28;20052;-59
2021/05/03 09:24:03;;;;;;;5.95;2.28;;;;;;;18.94;43.30;101881.41;5071514;28;20048;-57
2021/05/03 09:26:55;;;;;;;5.18;2.05;;;;;;;18.95;44.13;101882.28;5072103;28;20024;-59
2021/05/03 09:29:42;;;;;;;4.82;1.90;;;;;;;19.01;43.61;101880.06;5071856;28;20242;-59
2021/05/03 09:32:12;;;;;;;4.47;1.90;;;;;;;19.02;43.64;101884.38;5071491;28;20126;-61
2021/05/03 09:34:40;;;;;;;5.65;2.47;;;;;;;19.08;43.44;101885.75;5071951;28;20029;-60
2021/05/03 09:37:31;;;;;;;4.55;1.90;;;;;;;19.11;43.13;101882.06;5072375;28;20177;-57
2021/05/03 09:40:07;;;;;;;5.50;2.50;;;;;;;19.12;43.03;101879.31;5077813;28;20024;-60
2021/05/03 09:42:52;;;;;;;4.40;1.73;;;;;;;19.16;43.11;101875.50;5077590;28;20040;-58
2021/05/03 09:45:20;;;;;;;6.40;2.25;;;;;;;19.18;43.37;101880.66;5075296;28;20090;-58
2021/05/03 09:47:50;;;;;;;6.43;2.00;;;;;;;19.19;42.90;101874.44;5076073;28;20481;-59
2021/05/03 09:50:25;;;;;;;9.10;2.20;;;;;;;19.15;43.41;101868.53;5075419;28;20074;-58
2021/05/03 09:53:00;;;;;;;;;;;;;;;19.20;43.17;101868.19;5075865;28;20048;-58
2021/05/03 09:55:34;;;;;;;3.10;1.60;;;;;;;19.21;42.81;101862.78;5075288;28;19916;-57
2021/05/03 09:58:14;;;;;;;5.43;1.90;;;;;;;19.23;43.63;101849.47;5075824;28;20471;-60
2021/05/03 10:00:45;;;;;;;8.13;2.40;;;;;;;19.23;43.37;101848.63;5075364;28;20387;-58
2021/05/03 10:03:32;;;;;;;5.22;1.80;;;;;;;19.25;43.38;101847.59;5075663;28;20033;-59
2021/05/03 10:05:58;;;;;;;8.27;2.17;;;;;;;19.27;43.32;101845.69;5074665;28;20090;-58
2021/05/03 10:08:25;;;;;;;5.60;2.15;;;;;;;19.24;43.47;101843.25;5075390;28;20111;-58
2021/05/03 10:10:57;;;;;;;5.53;2.25;;;;;;;19.20;42.61;101841.75;5075311;28;20431;-58
2021/05/03 10:13:25;;;;;;;4.10;1.30;;;;;;;19.33;44.10;101829.38;5074507;28;20036;-60
2021/05/03 10:15:54;;;;;;;2.60;1.00;;;;;;;19.45;42.69;101824.19;5075957;28;20029;-62
2021/05/03 10:18:23;;;;;;;3.65;1.23;;;;;;;19.46;42.69;101823.25;5075123;28;20028;-63
2021/05/03 10:20:49;;;;;;;5.13;1.13;;;;;;;19.42;42.72;101819.94;5075101;28;20526;-61
2021/05/03 10:23:17;;;;;;;1.90;0.98;;;;;;;19.42;43.07;101827.03;5074465;28;20403;-61
2021/05/03 10:25:43;;;;;;;3.78;1.10;;;;;;;19.40;43.18;101822.69;5075008;28;20116;-61
2021/05/03 10:28:09;;;;;;;4.05;1.00;;;;;;;19.41;42.71;101813.00;5074364;28;20491;-62
2021/05/03 10:30:49;;;;;;;2.22;0.98;;;;;;;19.43;42.32;101805.78;5075298;28;20107;-62
2021/05/03 10:33:16;;;;;;;2.75;1.10;;;;;;;19.44;42.64;101810.13;5074740;28;20025;-61
2021/05/03 10:35:41;;;;;;;2.35;0.98;;;;;;;19.46;42.87;101799.44;5062262;28;20041;-64
2021/05/03 10:38:38;;;;;;;2.67;1.23;;;;;;;19.49;43.12;101805.34;5035700;28;20384;-60
2021/05/03 10:41:23;;;;;;;2.03;1.00;;;;;;;19.48;42.70;101794.88;5034452;28;20029;-64
2021/05/03 10:43:50;;;;;;;4.40;1.00;;;;;;;19.48;43.00;101793.06;5035110;28;20484;-64
2021/05/03 10:49:10;;;;;;;2.92;1.08;;;;;;;19.56;42.52;101792.53;5054134;28;20537;-70
2021/05/03 10:57:02;;;;;;;1.92;0.90;;;;;;;19.55;42.52;101777.59;5055681;28;20052;-69
2021/05/03 10:59:45;;;;;;;4.50;0.95;;;;;;;19.55;42.65;101774.97;5054939;28;20183;-69
2021/05/03 11:02:15;;;;;;;2.42;1.10;;;;;;;19.52;42.44;101770.75;5053754;28;20432;-63
2021/05/03 11:05:22;;;;;;;4.55;1.10;;;;;;;19.50;42.69;101762.09;5054626;28;20044;-67
2021/05/03 11:08:09;;;;;;;2.35;0.80;;;;;;;19.48;42.29;101761.34;5054757;28;20098;-67
2021/05/03 11:11:09;;;;;;;2.20;0.90;;;;;;;19.48;42.54;101747.28;5053352;28;20052;-68
2021/05/03 11:13:38;;;;;;;1.80;0.90;;;;;;;19.47;42.37;101743.81;5054075;28;20055;-62
2021/05/03 11:16:26;;;;;;;2.63;0.90;;;;;;;19.46;42.55;101752.69;5053551;28;20043;-64
2021/05/03 11:18:54;;;;;;;2.70;0.90;;;;;;;19.39;42.66;101735.56;5056500;28;20040;-67
2021/05/03 11:21:41;;;;;;;2.67;0.90;;;;;;;19.44;42.90;101748.47;5057725;28;20068;-67
2021/05/03 11:24:45;;;;;;;2.10;0.85;;;;;;;19.44;42.91;101728.19;5057933;28;20473;-69
2021/05/03 11:32:14;;;;;;;2.83;1.00;;;;;;;19.44;42.85;101735.25;5059581;28;20383;-69
2021/05/03 11:35:06;;;;;;;2.30;0.90;;;;;;;19.44;43.07;101732.59;5061282;28;20025;-70
2021/05/03 11:43:11;;;;;;;2.35;1.05;;;;;;;19.39;42.31;101710.00;5058764;28;20029;-68
2021/05/03 11:45:40;;;;;;;2.92;0.80;;;;;;;19.45;42.43;101719.28;5057572;28;20133;-72
2021/05/03 11:48:09;;;;;;;2.45;0.80;;;;;;;19.45;42.55;101721.09;5056612;28;20024;-74
2021/05/03 11:50:37;;;;;;;3.58;1.00;;;;;;;19.40;42.63;101709.03;5056803;28;20104;-68
2021/05/03 11:53:02;;;;;;;3.67;0.82;;;;;;;19.40;42.31;101708.19;5055410;28;20041;-69
2021/05/03 11:55:28;;;;;;;4.60;1.08;;;;;;;19.40;42.88;101709.03;5056659;28;20097;-78
2021/05/03 11:57:54;;;;;;;1.73;0.90;;;;;;;19.40;42.90;101713.50;5056353;28;20392;-68
2021/05/03 12:00:23;;;;;;;1.95;0.90;;;;;;;19.37;42.71;101713.72;5055996;28;20047;-71
2021/05/03 12:03:12;;;;;;;3.03;1.13;;;;;;;19.37;42.38;101719.00;5055240;28;20031;-68